sensor_id;sensor_type;location;lat;lon;timestamp;pressure;altitude;pressure_sealevel;temperature;humidity
37778;BME280;23615;51.506;7.678;2022-09-09T01:39:21;99320.56;;;15.94;91.53
37778;BME280;23615;51.506;7.678;2022-09-09T01:41:47;99318.94;;;15.98;91.66
37778;BME280;23615;51.506;7.678;2022-09-09T01:44:12;99318.16;;;15.93;91.82
37778;BME280;23615;51.506;7.678;2022-09-09T01:46:38;99310.66;;;15.90;92.17
37778;BME280;23615;51.506;7.678;2022-09-09T01:49:05;99318.19;;;15.88;92.06
37778;BME280;23615;51.506;7.678;2022-09-09T01:51:32;99309.56;;;15.86;92.65
37778;BME280;23615;51.506;7.678;2022-09-09T01:53:58;99314.69;;;15.87;92.63
37778;BME280;23615;51.506;7.678;2022-09-09T01:56:40;99315.53;;;15.83;92.81
37778;BME280;23615;51.506;7.678;2022-09-09T01:59:18;99310.13;;;15.83;92.88
37778;BME280;23615;51.506;7.678;2022-09-09T02:04:39;99307.72;;;15.76;93.21
37778;BME280;23615;51.506;7.678;2022-09-09T02:07:19;99317.13;;;15.84;93.17
37778;BME280;23615;51.506;7.678;2022-09-09T02:09:47;99310.13;;;15.83;93.51
37778;BME280;23615;51.506;7.678;2022-09-09T02:12:17;99313.34;;;15.85;93.18
37778;BME280;23615;51.506;7.678;2022-09-09T02:14:55;99308.19;;;15.93;92.74
37778;BME280;23615;51.506;7.678;2022-09-09T02:17:30;99309.28;;;15.92;92.64
37778;BME280;23615;51.506;7.678;2022-09-09T02:20:05;99313.06;;;15.91;92.80
37778;BME280;23615;51.506;7.678;2022-09-09T02:22:33;99314.69;;;15.92;92.52
37778;BME280;23615;51.506;7.678;2022-09-09T02:25:00;99321.63;;;15.93;92.56
37778;BME280;23615;51.506;7.678;2022-09-09T02:27:25;99320.59;;;15.89;92.64
37778;BME280;23615;51.506;7.678;2022-09-09T02:29:52;99319.75;;;15.94;92.68
37778;BME280;23615;51.506;7.678;2022-09-09T02:32:22;99311.19;;;15.92;92.71
37778;BME280;23615;51.506;7.678;2022-09-09T02:34:51;99319.50;;;15.95;92.48
37778;BME280;23615;51.506;7.678;2022-09-09T02:37:20;99321.09;;;15.96;92.28
37778;BME280;23615;51.506;7.678;2022-09-09T02:39:48;99324.31;;;15.98;92.21
37778;BME280;23615;51.506;7.678;2022-09-09T02:42:13;99319.44;;;16.05;91.82
37778;BME280;23615;51.506;7.678;2022-09-09T02:44:40;99316.75;;;16.11;91.46
37778;BME280;23615;51.506;7.678;2022-09-09T02:50:15;99315.94;;;16.10;91.47
37778;BME280;23615;51.506;7.678;2022-09-09T02:52:58;99315.13;;;16.09;91.39
37778;BME280;23615;51.506;7.678;2022-09-09T02:55:39;99314.34;;;16.04;91.44
37778;BME280;23615;51.506;7.678;2022-09-09T02:58:08;99319.16;;;16.07;91.63
37778;BME280;23615;51.506;7.678;2022-09-09T03:00:36;99317.34;;;15.97;91.72
37778;BME280;23615;51.506;7.678;2022-09-09T03:03:04;99315.41;;;16.03;91.36
37778;BME280;23615;51.506;7.678;2022-09-09T03:05:29;99315.75;;;15.91;92.10
37778;BME280;23615;51.506;7.678;2022-09-09T03:07:55;99322.22;;;15.90;92.10
37778;BME280;23615;51.506;7.678;2022-09-09T03:10:20;99317.34;;;15.97;92.13
37778;BME280;23615;51.506;7.678;2022-09-09T03:12:45;99327.56;;;15.95;91.76
37778;BME280;23615;51.506;7.678;2022-09-09T03:15:10;99331.59;;;15.98;91.51
37778;BME280;23615;51.506;7.678;2022-09-09T03:17:36;99329.97;;;15.97;91.62
37778;BME280;23615;51.506;7.678;2022-09-09T03:20:04;99325.44;;;15.92;91.60
37778;BME280;23615;51.506;7.678;2022-09-09T03:22:30;99326.28;;;15.83;91.93
37778;BME280;23615;51.506;7.678;2022-09-09T03:24:55;99337.03;;;15.78;91.90
37778;BME280;23615;51.506;7.678;2022-09-09T03:27:21;99334.34;;;15.78;92.40
37778;BME280;23615;51.506;7.678;2022-09-09T03:29:46;99321.16;;;15.76;92.40
37778;BME280;23615;51.506;7.678;2022-09-09T03:32:12;99330.88;;;15.72;92.57
37778;BME280;23615;51.506;7.678;2022-09-09T03:34:37;99333.06;;;15.65;92.76
37778;BME280;23615;51.506;7.678;2022-09-09T03:37:05;99324.19;;;15.59;93.19
37778;BME280;23615;51.506;7.678;2022-09-09T03:39:30;99322.31;;;15.60;92.93
37778;BME280;23615;51.506;7.678;2022-09-09T03:41:56;99322.88;;;15.57;93.04
37778;BME280;23615;51.506;7.678;2022-09-09T03:44:21;99314.25;;;15.60;93.18
37778;BME280;23615;51.506;7.678;2022-09-09T03:46:46;99315.56;;;15.73;93.00
37778;BME280;23615;51.506;7.678;2022-09-09T03:49:12;99306.41;;;15.74;92.96
37778;BME280;23615;51.506;7.678;2022-09-09T03:51:38;99306.91;;;15.76;93.01
37778;BME280;23615;51.506;7.678;2022-09-09T03:54:04;99299.41;;;15.73;93.16
37778;BME280;23615;51.506;7.678;2022-09-09T03:56:30;99309.59;;;15.76;93.10
37778;BME280;23615;51.506;7.678;2022-09-09T03:58:56;99311.78;;;15.74;93.34
37778;BME280;23615;51.506;7.678;2022-09-09T04:01:22;99310.97;;;15.73;93.11
37778;BME280;23615;51.506;7.678;2022-09-09T04:03:47;99318.50;;;15.66;93.33
37778;BME280;23615;51.506;7.678;2022-09-09T04:06:14;99313.13;;;15.71;92.90
37778;BME280;23615;51.506;7.678;2022-09-09T04:08:40;99321.19;;;15.66;93.08
37778;BME280;23615;51.506;7.678;2022-09-09T04:11:06;99321.75;;;15.68;93.38
37778;BME280;23615;51.506;7.678;2022-09-09T04:13:36;99326.06;;;15.64;93.39
37778;BME280;23615;51.506;7.678;2022-09-09T04:16:04;99321.75;;;15.68;93.35
37778;BME280;23615;51.506;7.678;2022-09-09T04:18:29;99322.00;;;15.66;92.88
37778;BME280;23615;51.506;7.678;2022-09-09T04:20:55;99319.09;;;15.63;93.30
37778;BME280;23615;51.506;7.678;2022-09-09T04:23:23;99317.50;;;15.57;93.50
37778;BME280;23615;51.506;7.678;2022-09-09T04:25:53;99322.56;;;15.53;93.64
37778;BME280;23615;51.506;7.678;2022-09-09T04:28:21;99324.19;;;15.49;93.76
37778;BME280;23615;51.506;7.678;2022-09-09T04:30:47;99326.06;;;15.49;93.60
37778;BME280;23615;51.506;7.678;2022-09-09T04:33:13;99328.78;;;15.44;93.98
37778;BME280;23615;51.506;7.678;2022-09-09T04:35:39;99322.63;;;15.38;94.03
37778;BME280;23615;51.506;7.678;2022-09-09T04:38:08;99330.13;;;15.41;94.12
37778;BME280;23615;51.506;7.678;2022-09-09T04:40:34;99329.31;;;15.56;93.96
37778;BME280;23615;51.506;7.678;2022-09-09T04:43:01;99327.16;;;15.63;93.63
37778;BME280;23615;51.506;7.678;2022-09-09T04:45:29;99330.66;;;15.63;93.86
37778;BME280;23615;51.506;7.678;2022-09-09T04:47:55;99326.88;;;15.64;93.66
37778;BME280;23615;51.506;7.678;2022-09-09T04:50:20;99324.97;;;15.70;93.58
37778;BME280;23615;51.506;7.678;2022-09-09T04:52:45;99329.81;;;15.73;93.42
37778;BME280;23615;51.506;7.678;2022-09-09T04:55:11;99322.53;;;15.79;93.08
37778;BME280;23615;51.506;7.678;2022-09-09T04:57:38;99325.44;;;15.87;93.15
37778;BME280;23615;51.506;7.678;2022-09-09T05:00:05;99324.63;;;15.92;92.75
37778;BME280;23615;51.506;7.678;2022-09-09T05:02:31;99326.75;;;16.00;92.43
37778;BME280;23615;51.506;7.678;2022-09-09T05:04:57;99317.59;;;16.01;92.51
37778;BME280;23615;51.506;7.678;2022-09-09T05:07:23;99317.91;;;15.89;92.79
37778;BME280;23615;51.506;7.678;2022-09-09T05:09:48;99318.44;;;15.91;92.79
37778;BME280;23615;51.506;7.678;2022-09-09T05:12:15;99316.88;;;15.80;93.36
37778;BME280;23615;51.506;7.678;2022-09-09T05:14:42;99319.56;;;15.75;93.57
37778;BME280;23615;51.506;7.678;2022-09-09T05:17:07;99324.69;;;15.71;94.08
37778;BME280;23615;51.506;7.678;2022-09-09T05:19:33;99323.31;;;15.79;93.95
37778;BME280;23615;51.506;7.678;2022-09-09T05:21:58;99323.88;;;15.81;93.75
37778;BME280;23615;51.506;7.678;2022-09-09T05:24:23;99323.88;;;15.81;94.08
37778;BME280;23615;51.506;7.678;2022-09-09T05:26:49;99323.28;;;15.84;94.42
37778;BME280;23615;51.506;7.678;2022-09-09T05:29:14;99327.09;;;15.83;94.05
37778;BME280;23615;51.506;7.678;2022-09-09T05:31:39;99320.59;;;15.89;94.00
37778;BME280;23615;51.506;7.678;2022-09-09T05:34:04;99319.28;;;15.82;94.12
37778;BME280;23615;51.506;7.678;2022-09-09T05:36:30;99320.09;;;15.82;94.43
37778;BME280;23615;51.506;7.678;2022-09-09T05:38:55;99314.69;;;15.87;94.58
37778;BME280;23615;51.506;7.678;2022-09-09T05:41:20;99317.69;;;15.81;94.41
37778;BME280;23615;51.506;7.678;2022-09-09T05:43:47;99319.53;;;15.85;93.77
37778;BME280;23615;51.506;7.678;2022-09-09T05:46:16;99324.63;;;15.92;93.83
37778;BME280;23615;51.506;7.678;2022-09-09T05:48:43;99327.59;;;15.90;93.71
37778;BME280;23615;51.506;7.678;2022-09-09T05:51:13;99323.81;;;15.91;93.89
37778;BME280;23615;51.506;7.678;2022-09-09T05:53:40;99327.03;;;15.93;94.17
37778;BME280;23615;51.506;7.678;2022-09-09T05:56:09;99325.72;;;15.86;94.46
37778;BME280;23615;51.506;7.678;2022-09-09T05:58:36;99320.59;;;15.84;94.50
37778;BME280;23615;51.506;7.678;2022-09-09T06:03:33;99324.81;;;16.11;94.03
37778;BME280;23615;51.506;7.678;2022-09-09T06:06:07;99333.66;;;16.16;93.37
37778;BME280;23615;51.506;7.678;2022-09-09T06:08:34;99320.50;;;16.09;93.03
37778;BME280;23615;51.506;7.678;2022-09-09T06:11:10;99324.28;;;16.08;93.20
37778;BME280;23615;51.506;7.678;2022-09-09T06:13:37;99325.31;;;16.18;92.96
37778;BME280;23615;51.506;7.678;2022-09-09T06:16:04;99340.44;;;16.08;93.08
37778;BME280;23615;51.506;7.678;2022-09-09T06:18:30;99339.84;;;16.12;92.69
37778;BME280;23615;51.506;7.678;2022-09-09T06:21:02;99338.78;;;16.18;92.97
37778;BME280;23615;51.506;7.678;2022-09-09T06:23:32;99336.63;;;16.15;92.99
37778;BME280;23615;51.506;7.678;2022-09-09T06:28:27;99335.50;;;16.21;93.07
37778;BME280;23615;51.506;7.678;2022-09-09T06:31:00;99333.84;;;16.30;93.11
37778;BME280;23615;51.506;7.678;2022-09-09T06:33:27;99339.22;;;16.30;93.09
37778;BME280;23615;51.506;7.678;2022-09-09T06:35:55;99330.88;;;16.31;92.86
37778;BME280;23615;51.506;7.678;2022-09-09T06:38:22;99328.34;;;16.50;91.55
37778;BME280;23615;51.506;7.678;2022-09-09T06:40:52;99330.44;;;16.58;91.34
37778;BME280;23615;51.506;7.678;2022-09-09T06:43:20;99326.66;;;16.59;90.79
37778;BME280;23615;51.506;7.678;2022-09-09T06:45:57;99340.66;;;16.66;90.70
37778;BME280;23615;51.506;7.678;2022-09-09T06:48:23;99333.56;;;16.80;89.93
37778;BME280;23615;51.506;7.678;2022-09-09T06:50:48;99342.38;;;16.91;89.08
37778;BME280;23615;51.506;7.678;2022-09-09T06:53:18;99344.00;;;16.87;89.21
37778;BME280;23615;51.506;7.678;2022-09-09T06:55:45;99343.59;;;16.70;89.60
37778;BME280;23615;51.506;7.678;2022-09-09T06:58:10;99347.84;;;16.76;89.34
37778;BME280;23615;51.506;7.678;2022-09-09T07:00:36;99354.03;;;16.81;89.39
37778;BME280;23615;51.506;7.678;2022-09-09T07:03:04;99354.03;;;16.81;89.36
37778;BME280;23615;51.506;7.678;2022-09-09T07:05:29;99352.81;;;16.98;88.60
37778;BME280;23615;51.506;7.678;2022-09-09T07:07:54;99357.06;;;17.04;88.26
37778;BME280;23615;51.506;7.678;2022-09-09T07:10:20;99359.75;;;17.09;88.26
37778;BME280;23615;51.506;7.678;2022-09-09T07:12:50;99361.22;;;17.25;87.48
37778;BME280;23615;51.506;7.678;2022-09-09T07:15:16;99359.47;;;17.39;86.60
37778;BME280;23615;51.506;7.678;2022-09-09T07:17:43;99363.28;;;17.38;86.08
37778;BME280;23615;51.506;7.678;2022-09-09T07:20:09;99361.13;;;17.35;86.35
37778;BME280;23615;51.506;7.678;2022-09-09T07:22:34;99359.28;;;17.31;86.86
37778;BME280;23615;51.506;7.678;2022-09-09T07:24:59;99359.19;;;17.41;85.78
37778;BME280;23615;51.506;7.678;2022-09-09T07:27:24;99357.38;;;17.31;85.66
37778;BME280;23615;51.506;7.678;2022-09-09T07:29:50;99362.03;;;17.26;85.70
37778;BME280;23615;51.506;7.678;2022-09-09T07:32:16;99356.34;;;17.27;85.13
37778;BME280;23615;51.506;7.678;2022-09-09T07:34:42;99356.09;;;17.24;85.14
37778;BME280;23615;51.506;7.678;2022-09-09T07:37:08;99358.84;;;17.18;85.08
37778;BME280;23615;51.506;7.678;2022-09-09T07:39:36;99358.88;;;17.13;85.60
37778;BME280;23615;51.506;7.678;2022-09-09T07:42:01;99362.38;;;17.14;86.27
37778;BME280;23615;51.506;7.678;2022-09-09T07:44:27;99365.06;;;17.19;86.10
37778;BME280;23615;51.506;7.678;2022-09-09T07:46:53;99363.44;;;17.18;86.01
37778;BME280;23615;51.506;7.678;2022-09-09T07:49:18;99361.78;;;17.22;86.28
37778;BME280;23615;51.506;7.678;2022-09-09T07:51:45;99365.47;;;17.31;86.08
37778;BME280;23615;51.506;7.678;2022-09-09T07:54:13;99362.09;;;17.20;86.34
37778;BME280;23615;51.506;7.678;2022-09-09T07:56:39;99361.56;;;17.18;86.96
37778;BME280;23615;51.506;7.678;2022-09-09T07:59:06;99373.56;;;17.31;86.32
37778;BME280;23615;51.506;7.678;2022-09-09T08:01:34;99372.56;;;17.22;86.92
37778;BME280;23615;51.506;7.678;2022-09-09T08:04:04;99372.00;;;17.25;87.41
37778;BME280;23615;51.506;7.678;2022-09-09T08:06:41;99370.47;;;17.14;87.92
37778;BME280;23615;51.506;7.678;2022-09-09T08:09:08;99376.06;;;17.23;87.73
37778;BME280;23615;51.506;7.678;2022-09-09T08:11:34;99372.44;;;17.37;87.55
37778;BME280;23615;51.506;7.678;2022-09-09T08:14:01;99373.72;;;17.45;87.13
37778;BME280;23615;51.506;7.678;2022-09-09T08:16:31;99365.34;;;17.46;86.76
37778;BME280;23615;51.506;7.678;2022-09-09T08:18:58;99371.13;;;17.58;84.87
37778;BME280;23615;51.506;7.678;2022-09-09T08:21:29;99369.78;;;17.66;84.69
37778;BME280;23615;51.506;7.678;2022-09-09T08:23:56;99371.66;;;17.61;84.67
37778;BME280;23615;51.506;7.678;2022-09-09T08:26:24;99376.19;;;17.70;84.78
37778;BME280;23615;51.506;7.678;2022-09-09T08:28:51;99371.06;;;17.69;84.25
37778;BME280;23615;51.506;7.678;2022-09-09T08:31:23;99371.72;;;17.55;84.87
37778;BME280;23615;51.506;7.678;2022-09-09T08:33:48;99367.53;;;17.73;83.67
37778;BME280;23615;51.506;7.678;2022-09-09T08:36:16;99369.34;;;17.78;83.27
37778;BME280;23615;51.506;7.678;2022-09-09T08:38:42;99372.94;;;17.73;83.22
37778;BME280;23615;51.506;7.678;2022-09-09T08:44:20;99372.22;;;17.86;82.74
37778;BME280;23615;51.506;7.678;2022-09-09T08:47:03;99377.69;;;18.05;83.38
37778;BME280;23615;51.506;7.678;2022-09-09T08:55:41;99387.94;;;18.27;81.69
37778;BME280;23615;51.506;7.678;2022-09-09T09:09:27;99381.53;;;18.42;78.98
37778;BME280;23615;51.506;7.678;2022-09-09T09:11:58;99386.00;;;18.51;78.97
37778;BME280;23615;51.506;7.678;2022-09-09T09:14:26;99382.50;;;18.51;77.94
37778;BME280;23615;51.506;7.678;2022-09-09T09:17:03;99374.09;;;18.52;79.09
37778;BME280;23615;51.506;7.678;2022-09-09T09:19:31;99378.81;;;18.65;79.25
37778;BME280;23615;51.506;7.678;2022-09-09T09:22:14;99384.72;;;18.86;78.18
37778;BME280;23615;51.506;7.678;2022-09-09T09:24:54;99386.16;;;18.97;77.56
37778;BME280;23615;51.506;7.678;2022-09-09T09:27:34;99382.88;;;19.00;75.40
37778;BME280;23615;51.506;7.678;2022-09-09T09:30:12;99383.53;;;19.11;74.91
37778;BME280;23615;51.506;7.678;2022-09-09T09:32:41;99388.63;;;19.13;74.36
37778;BME280;23615;51.506;7.678;2022-09-09T09:35:13;99379.34;;;19.19;73.02
37778;BME280;23615;51.506;7.678;2022-09-09T09:37:40;99379.63;;;19.17;73.72
37778;BME280;23615;51.506;7.678;2022-09-09T09:40:14;99380.81;;;19.11;74.72
37778;BME280;23615;51.506;7.678;2022-09-09T09:42:59;99379.59;;;19.36;72.38
37778;BME280;23615;51.506;7.678;2022-09-09T09:45:43;99376.78;;;19.41;73.00
37778;BME280;23615;51.506;7.678;2022-09-09T09:48:13;99371.22;;;19.51;72.86
37778;BME280;23615;51.506;7.678;2022-09-09T09:50:54;99370.75;;;19.63;70.82
37778;BME280;23615;51.506;7.678;2022-09-09T09:53:40;99379.34;;;19.51;70.58
37778;BME280;23615;51.506;7.678;2022-09-09T09:56:08;99382.28;;;19.55;70.83
37778;BME280;23615;51.506;7.678;2022-09-09T10:01:24;99379.88;;;19.67;70.44
37778;BME280;23615;51.506;7.678;2022-09-09T10:04:15;99377.06;;;19.72;70.78
37778;BME280;23615;51.506;7.678;2022-09-09T10:06:42;99384.22;;;19.82;71.60
37778;BME280;23615;51.506;7.678;2022-09-09T10:09:21;99380.59;;;20.00;70.38
37778;BME280;23615;51.506;7.678;2022-09-09T10:12:05;99383.91;;;19.97;70.63
37778;BME280;23615;51.506;7.678;2022-09-09T10:14:46;99380.59;;;20.13;68.72
37778;BME280;23615;51.506;7.678;2022-09-09T10:17:32;99377.69;;;20.10;69.34
37778;BME280;23615;51.506;7.678;2022-09-09T10:20:18;99370.28;;;20.02;69.59
37778;BME280;23615;51.506;7.678;2022-09-09T10:34:33;99378.19;;;20.39;67.92
37778;BME280;23615;51.506;7.678;2022-09-09T10:37:06;99379.38;;;20.33;66.31
37778;BME280;23615;51.506;7.678;2022-09-09T10:39:39;99370.84;;;20.26;65.98
37778;BME280;23615;51.506;7.678;2022-09-09T10:42:16;99367.53;;;20.15;66.10
37778;BME280;23615;51.506;7.678;2022-09-09T10:45:15;99365.34;;;20.04;66.05
37778;BME280;23615;51.506;7.678;2022-09-09T10:48:01;99364.88;;;20.02;66.80
37778;BME280;23615;51.506;7.678;2022-09-09T10:55:57;99361.81;;;20.03;65.86
37778;BME280;23615;51.506;7.678;2022-09-09T10:58:30;99349.38;;;20.16;66.58
37778;BME280;23615;51.506;7.678;2022-09-09T11:01:06;99351.78;;;20.45;65.26
37778;BME280;23615;51.506;7.678;2022-09-09T11:03:35;99345.22;;;20.60;63.86
37778;BME280;23615;51.506;7.678;2022-09-09T11:06:06;99348.66;;;20.51;63.22
37778;BME280;23615;51.506;7.678;2022-09-09T11:08:38;99356.63;;;20.34;63.84
37778;BME280;23615;51.506;7.678;2022-09-09T11:11:11;99358.41;;;20.25;63.87
37778;BME280;23615;51.506;7.678;2022-09-09T11:14:00;99363.31;;;20.23;64.59
37778;BME280;23615;51.506;7.678;2022-09-09T11:16:30;99363.44;;;20.18;64.22
37778;BME280;23615;51.506;7.678;2022-09-09T11:19:33;99368.47;;;20.11;65.31
37778;BME280;23615;51.506;7.678;2022-09-09T11:22:02;99368.34;;;20.16;65.46
37778;BME280;23615;51.506;7.678;2022-09-09T11:24:36;99369.97;;;20.17;65.27
37778;BME280;23615;51.506;7.678;2022-09-09T11:32:50;99367.47;;;20.21;66.33
37778;BME280;23615;51.506;7.678;2022-09-09T11:38:16;99376.72;;;20.69;69.48
37778;BME280;23615;51.506;7.678;2022-09-09T11:40:44;99377.94;;;20.85;66.94
37778;BME280;23615;51.506;7.678;2022-09-09T11:43:21;99369.63;;;21.04;67.46
37778;BME280;23615;51.506;7.678;2022-09-09T11:45:55;99362.88;;;21.15;67.20
37778;BME280;23615;51.506;7.678;2022-09-09T11:49:00;99349.72;;;21.31;64.35
37778;BME280;23615;51.506;7.678;2022-09-09T11:51:28;99348.66;;;21.41;65.46
37778;BME280;23615;51.506;7.678;2022-09-09T11:54:28;99351.13;;;21.51;64.73
37778;BME280;23615;51.506;7.678;2022-09-09T11:56:46;99352.78;;;21.60;68.11
37778;BME280;23615;51.506;7.678;2022-09-09T11:59:24;99348.47;;;21.68;65.00
37778;BME280;23615;51.506;7.678;2022-09-09T12:01:55;99339.44;;;21.81;64.45
37778;BME280;23615;51.506;7.678;2022-09-09T12:06:54;99346.09;;;22.06;65.55
37778;BME280;23615;51.506;7.678;2022-09-09T12:14:54;99350.16;;;21.86;63.36
37778;BME280;23615;51.506;7.678;2022-09-09T12:17:24;99346.59;;;21.77;63.58
37778;BME280;23615;51.506;7.678;2022-09-09T12:37:24;99339.25;;;21.78;62.11
37778;BME280;23615;51.506;7.678;2022-09-09T12:39:52;99333.94;;;21.64;61.97
37778;BME280;23615;51.506;7.678;2022-09-09T12:42:21;99339.38;;;21.64;62.96
37778;BME280;23615;51.506;7.678;2022-09-09T12:44:59;99350.53;;;21.62;62.93
37778;BME280;23615;51.506;7.678;2022-09-09T12:49:57;99343.66;;;21.56;62.16
37778;BME280;23615;51.506;7.678;2022-09-09T12:52:30;99342.38;;;21.54;61.75
37778;BME280;23615;51.506;7.678;2022-09-09T12:54:58;99335.09;;;21.41;61.26
37778;BME280;23615;51.506;7.678;2022-09-09T12:57:26;99345.75;;;21.28;61.43
37778;BME280;23615;51.506;7.678;2022-09-09T13:00:05;99358.38;;;21.11;62.94
37778;BME280;23615;51.506;7.678;2022-09-09T13:02:31;99352.44;;;20.86;66.08
37778;BME280;23615;51.506;7.678;2022-09-09T13:05:06;99351.41;;;20.74;69.07
37778;BME280;23615;51.506;7.678;2022-09-09T13:07:32;99341.16;;;20.71;66.83
37778;BME280;23615;51.506;7.678;2022-09-09T13:09:57;99340.84;;;20.72;69.30
37778;BME280;23615;51.506;7.678;2022-09-09T13:12:22;99337.03;;;20.96;68.34
37778;BME280;23615;51.506;7.678;2022-09-09T13:14:51;99335.81;;;21.02;67.14
37778;BME280;23615;51.506;7.678;2022-09-09T13:17:21;99334.75;;;21.11;66.31
37778;BME280;23615;51.506;7.678;2022-09-09T13:19:47;99330.75;;;21.09;66.39
37778;BME280;23615;51.506;7.678;2022-09-09T13:22:16;99326.94;;;21.10;66.05
37778;BME280;23615;51.506;7.678;2022-09-09T13:24:44;99326.56;;;21.03;65.95
37778;BME280;23615;51.506;7.678;2022-09-09T13:27:27;99320.28;;;20.94;66.06
37778;BME280;23615;51.506;7.678;2022-09-09T13:29:54;99320.47;;;20.97;66.08
37778;BME280;23615;51.506;7.678;2022-09-09T13:32:21;99316.38;;;21.08;64.50
37778;BME280;23615;51.506;7.678;2022-09-09T13:34:56;99325.31;;;20.86;67.61
37778;BME280;23615;51.506;7.678;2022-09-09T13:37:34;99324.91;;;20.71;69.00
37778;BME280;23615;51.506;7.678;2022-09-09T13:40:01;99320.88;;;20.68;67.90
37778;BME280;23615;51.506;7.678;2022-09-09T13:42:39;99325.13;;;20.61;68.53
37778;BME280;23615;51.506;7.678;2022-09-09T13:45:19;99320.47;;;20.75;67.95
37778;BME280;23615;51.506;7.678;2022-09-09T13:47:45;99333.03;;;20.71;69.04
37778;BME280;23615;51.506;7.678;2022-09-09T13:50:24;99328.78;;;20.78;70.12
37778;BME280;23615;51.506;7.678;2022-09-09T13:52:53;99326.69;;;20.98;68.58
37778;BME280;23615;51.506;7.678;2022-09-09T13:55:20;99322.28;;;21.33;63.69
37778;BME280;23615;51.506;7.678;2022-09-09T13:58:01;99323.28;;;21.37;60.61
37778;BME280;23615;51.506;7.678;2022-09-09T14:00:29;99325.50;;;21.35;61.04
37778;BME280;23615;51.506;7.678;2022-09-09T14:02:55;99319.97;;;21.17;61.50
37778;BME280;23615;51.506;7.678;2022-09-09T14:05:20;99324.03;;;21.28;60.62
37778;BME280;23615;51.506;7.678;2022-09-09T14:07:47;99317.28;;;21.17;61.19
37778;BME280;23615;51.506;7.678;2022-09-09T14:10:13;99319.47;;;21.15;61.35
37778;BME280;23615;51.506;7.678;2022-09-09T14:12:38;99314.16;;;21.10;61.80
37778;BME280;23615;51.506;7.678;2022-09-09T14:15:05;99318.00;;;21.09;61.00
37778;BME280;23615;51.506;7.678;2022-09-09T14:17:31;99320.72;;;21.09;62.62
37778;BME280;23615;51.506;7.678;2022-09-09T14:19:57;99311.94;;;21.12;61.09
37778;BME280;23615;51.506;7.678;2022-09-09T14:22:23;99317.13;;;21.22;61.41
37778;BME280;23615;51.506;7.678;2022-09-09T14:24:48;99325.63;;;21.07;62.85
37778;BME280;23615;51.506;7.678;2022-09-09T14:27:14;99335.00;;;20.79;67.30
37778;BME280;23615;51.506;7.678;2022-09-09T14:29:40;99338.22;;;20.45;69.31
37778;BME280;23615;51.506;7.678;2022-09-09T14:32:06;99338.72;;;20.33;70.05
37778;BME280;23615;51.506;7.678;2022-09-09T14:34:31;99341.19;;;20.07;71.38
37778;BME280;23615;51.506;7.678;2022-09-09T14:37:00;99343.59;;;19.95;72.29
37778;BME280;23615;51.506;7.678;2022-09-09T14:39:25;99336.34;;;20.04;72.95
37778;BME280;23615;51.506;7.678;2022-09-09T14:41:51;99338.00;;;19.92;73.29
37778;BME280;23615;51.506;7.678;2022-09-09T14:44:16;99333.84;;;19.94;73.13
37778;BME280;23615;51.506;7.678;2022-09-09T14:46:42;99331.06;;;19.99;72.28
37778;BME280;23615;51.506;7.678;2022-09-09T14:49:10;99335.97;;;19.97;72.46
37778;BME280;23615;51.506;7.678;2022-09-09T14:51:36;99332.97;;;19.99;71.13
37778;BME280;23615;51.506;7.678;2022-09-09T14:54:02;99337.06;;;19.96;72.45
37778;BME280;23615;51.506;7.678;2022-09-09T14:56:30;99335.56;;;20.04;71.76
37778;BME280;23615;51.506;7.678;2022-09-09T14:58:57;99325.53;;;20.04;72.00
37778;BME280;23615;51.506;7.678;2022-09-09T15:01:24;99325.59;;;20.13;71.12
37778;BME280;23615;51.506;7.678;2022-09-09T15:03:57;99312.69;;;20.10;70.65
37778;BME280;23615;51.506;7.678;2022-09-09T15:06:28;99327.50;;;20.26;70.53
37778;BME280;23615;51.506;7.678;2022-09-09T15:08:54;99324.03;;;20.12;71.73
37778;BME280;23615;51.506;7.678;2022-09-09T15:11:23;99330.44;;;20.16;70.97
37778;BME280;23615;51.506;7.678;2022-09-09T15:13:50;99331.94;;;20.08;71.17
37778;BME280;23615;51.506;7.678;2022-09-09T15:16:19;99336.69;;;20.03;71.61
37778;BME280;23615;51.506;7.678;2022-09-09T15:18:45;99342.69;;;19.86;71.95
37778;BME280;23615;51.506;7.678;2022-09-09T15:21:13;99344.59;;;19.72;73.07
37778;BME280;23615;51.506;7.678;2022-09-09T15:23:39;99351.81;;;19.63;74.46
37778;BME280;23615;51.506;7.678;2022-09-09T15:26:05;99348.56;;;19.47;75.45
37778;BME280;23615;51.506;7.678;2022-09-09T15:28:32;99341.31;;;19.42;76.32
37778;BME280;23615;51.506;7.678;2022-09-09T15:31:11;99344.03;;;19.42;75.87
37778;BME280;23615;51.506;7.678;2022-09-09T15:33:37;99338.22;;;19.35;77.22
37778;BME280;23615;51.506;7.678;2022-09-09T15:36:23;99337.50;;;19.30;77.40
37778;BME280;23615;51.506;7.678;2022-09-09T15:38:48;99339.59;;;19.33;76.80
37778;BME280;23615;51.506;7.678;2022-09-09T15:41:14;99339.09;;;19.31;76.96
37778;BME280;23615;51.506;7.678;2022-09-09T15:43:44;99342.78;;;19.21;77.04
37778;BME280;23615;51.506;7.678;2022-09-09T15:46:35;99348.50;;;19.20;77.85
37778;BME280;23615;51.506;7.678;2022-09-09T15:49:12;99355.06;;;19.14;78.44
37778;BME280;23615;51.506;7.678;2022-09-09T15:51:39;99374.16;;;19.03;80.19
37778;BME280;23615;51.506;7.678;2022-09-09T15:54:05;99389.31;;;18.86;81.00
37778;BME280;23615;51.506;7.678;2022-09-09T15:56:31;99394.44;;;18.68;82.29
37778;BME280;23615;51.506;7.678;2022-09-09T15:58:58;99396.88;;;18.46;84.22
37778;BME280;23615;51.506;7.678;2022-09-09T16:01:24;99389.28;;;18.29;84.77
37778;BME280;23615;51.506;7.678;2022-09-09T16:03:50;99380.81;;;18.12;85.62
37778;BME280;23615;51.506;7.678;2022-09-09T16:06:21;99385.50;;;18.07;86.52
37778;BME280;23615;51.506;7.678;2022-09-09T16:08:51;99410.41;;;17.99;87.23
37778;BME280;23615;51.506;7.678;2022-09-09T16:11:19;99415.69;;;17.85;88.37
37778;BME280;23615;51.506;7.678;2022-09-09T16:13:47;99412.00;;;17.76;89.46
37778;BME280;23615;51.506;7.678;2022-09-09T16:16:14;99415.56;;;17.71;90.18
37778;BME280;23615;51.506;7.678;2022-09-09T16:18:46;99405.72;;;17.56;90.19